createdAt,value
2022-09-16T00:01:37.034Z,1.63
2022-09-16T00:04:03.556Z,2.00
2022-09-16T00:06:30.325Z,2.03
2022-09-16T00:08:58.615Z,2.40
2022-09-16T00:11:25.179Z,1.90
2022-09-16T00:13:51.826Z,2.30
2022-09-16T00:16:24.604Z,2.10
2022-09-16T00:18:55.718Z,2.10
2022-09-16T00:21:23.078Z,2.70
2022-09-16T00:23:49.596Z,1.73
2022-09-16T00:26:16.188Z,1.63
2022-09-16T00:28:43.263Z,2.03
2022-09-16T00:31:09.795Z,1.30
2022-09-16T00:33:36.427Z,1.70
2022-09-16T00:36:11.338Z,2.20
2022-09-16T00:38:38.580Z,2.43
2022-09-16T00:41:06.164Z,1.70
2022-09-16T00:43:53.987Z,1.80
2022-09-16T00:46:27.725Z,2.03
2022-09-16T00:48:54.527Z,2.10
2022-09-16T00:51:22.094Z,1.77
2022-09-16T00:53:56.975Z,1.60
2022-09-16T00:56:26.310Z,1.67
2022-09-16T00:59:09.943Z,1.73
2022-09-16T01:01:37.156Z,1.53
2022-09-16T01:04:14.086Z,1.57
2022-09-16T01:06:40.645Z,2.03
2022-09-16T01:09:07.317Z,1.60
2022-09-16T01:11:34.064Z,1.30
2022-09-16T01:14:21.000Z,1.87
2022-09-16T01:16:58.214Z,1.80
2022-09-16T01:19:55.597Z,1.50
2022-09-16T01:22:29.607Z,2.00
2022-09-16T01:25:11.431Z,1.30
2022-09-16T01:27:51.766Z,1.70
2022-09-16T01:30:18.487Z,1.63
2022-09-16T01:32:58.763Z,1.87
2022-09-16T01:35:36.108Z,1.50
2022-09-16T01:38:20.872Z,2.00
2022-09-16T01:41:07.261Z,1.67
2022-09-16T01:43:44.838Z,1.90
2022-09-16T01:46:23.094Z,2.00
2022-09-16T01:48:58.665Z,1.73
2022-09-16T01:51:31.802Z,1.63
2022-09-16T01:54:12.621Z,1.50
2022-09-16T01:57:03.923Z,1.70
2022-09-16T02:00:06.635Z,2.20
2022-09-16T02:02:39.237Z,1.80
2022-09-16T02:05:09.820Z,1.70
2022-09-16T02:07:47.703Z,1.60
2022-09-16T02:10:20.839Z,2.10
2022-09-16T02:12:49.882Z,1.90
2022-09-16T02:15:22.095Z,2.20
2022-09-16T02:17:57.649Z,1.90
2022-09-16T02:20:27.668Z,1.80
2022-09-16T02:22:59.470Z,1.80
2022-09-16T02:25:26.746Z,1.90
2022-09-16T02:27:54.080Z,2.13
2022-09-16T02:30:22.049Z,1.77
2022-09-16T02:33:03.742Z,1.80
2022-09-16T02:35:31.443Z,2.10
2022-09-16T02:38:04.887Z,2.13
2022-09-16T02:40:37.537Z,2.03
2022-09-16T02:43:04.261Z,2.10
2022-09-16T02:45:47.250Z,2.00
2022-09-16T02:48:23.063Z,2.30
2022-09-16T02:50:59.834Z,2.47
2022-09-16T02:53:52.930Z,3.37
2022-09-16T02:56:27.633Z,2.57
2022-09-16T02:58:54.113Z,2.33
2022-09-16T03:01:22.041Z,3.07
2022-09-16T03:03:48.944Z,2.63
2022-09-16T03:06:17.619Z,3.33
2022-09-16T03:08:45.222Z,3.93
2022-09-16T03:11:32.071Z,2.77
2022-09-16T03:14:01.506Z,3.03
2022-09-16T03:16:46.139Z,3.10
2022-09-16T03:19:24.948Z,2.77
2022-09-16T03:22:15.266Z,3.90
2022-09-16T03:25:00.786Z,3.20
2022-09-16T03:27:34.538Z,2.87
2022-09-16T03:30:09.319Z,3.17
2022-09-16T03:32:58.392Z,4.10
2022-09-16T03:35:32.179Z,3.20
2022-09-16T03:37:59.921Z,3.60
2022-09-16T03:40:29.838Z,3.20
2022-09-16T03:42:57.874Z,3.27
2022-09-16T03:45:24.513Z,3.33
2022-09-16T03:47:52.460Z,3.37
2022-09-16T03:50:20.373Z,2.63
2022-09-16T03:52:47.117Z,2.70
2022-09-16T03:55:13.813Z,2.97
2022-09-16T03:57:40.826Z,2.50
2022-09-16T04:00:08.621Z,2.47
2022-09-16T04:02:35.942Z,2.27
2022-09-16T04:05:03.638Z,2.07
2022-09-16T04:07:33.493Z,2.63
2022-09-16T04:10:00.205Z,2.50
2022-09-16T04:12:27.062Z,2.23
2022-09-16T04:14:53.557Z,2.30
2022-09-16T04:17:20.040Z,2.40
2022-09-16T04:19:46.499Z,2.10
2022-09-16T04:22:12.961Z,2.80
2022-09-16T04:24:39.421Z,2.20
2022-09-16T04:27:05.933Z,2.50
2022-09-16T04:29:32.835Z,1.93
2022-09-16T04:31:59.335Z,2.40
2022-09-16T04:34:25.966Z,2.30
2022-09-16T04:36:52.407Z,3.23
2022-09-16T04:39:19.544Z,2.37
2022-09-16T04:41:46.050Z,2.17
2022-09-16T04:44:12.770Z,2.20
2022-09-16T04:46:39.308Z,2.33
2022-09-16T04:49:06.573Z,2.60
2022-09-16T04:51:33.244Z,2.80
2022-09-16T04:54:00.089Z,2.30
2022-09-16T04:56:28.980Z,2.20
2022-09-16T04:58:58.367Z,2.80
2022-09-16T05:01:27.353Z,2.60
2022-09-16T05:03:56.976Z,2.80
2022-09-16T05:06:30.018Z,2.50
2022-09-16T05:08:57.591Z,2.83
2022-09-16T05:11:27.366Z,2.90
2022-09-16T05:13:54.626Z,2.87
2022-09-16T05:16:22.888Z,3.50
2022-09-16T05:18:51.068Z,2.17
2022-09-16T05:21:19.740Z,2.50
2022-09-16T05:23:47.381Z,2.60
2022-09-16T05:26:17.098Z,2.87
2022-09-16T05:28:43.709Z,3.00
2022-09-16T05:31:15.016Z,2.60
2022-09-16T05:33:43.700Z,3.23
2022-09-16T05:36:15.773Z,3.30
2022-09-16T05:38:54.313Z,3.30
2022-09-16T05:41:29.253Z,3.77
2022-09-16T05:43:59.367Z,3.30
2022-09-16T05:46:26.376Z,3.67
2022-09-16T05:48:53.162Z,3.53
2022-09-16T05:51:21.872Z,2.93
2022-09-16T05:53:49.858Z,3.83
2022-09-16T05:56:25.788Z,3.43
2022-09-16T05:58:57.933Z,3.70
2022-09-16T06:01:27.236Z,4.53
2022-09-16T06:03:55.071Z,3.50
2022-09-16T06:06:44.896Z,3.70
2022-09-16T06:09:17.586Z,5.60
2022-09-16T06:11:49.035Z,4.40
2022-09-16T06:14:16.589Z,4.20
2022-09-16T06:16:43.750Z,3.90
2022-09-16T06:19:14.463Z,3.10
2022-09-16T06:21:41.966Z,2.33
2022-09-16T06:24:09.022Z,2.80
2022-09-16T06:26:37.994Z,2.43
2022-09-16T06:29:05.707Z,1.83
2022-09-16T06:31:32.717Z,1.60
2022-09-16T06:33:59.267Z,1.27
2022-09-16T06:36:29.966Z,1.33
2022-09-16T06:38:56.751Z,1.10
2022-09-16T06:41:24.107Z,1.20
2022-09-16T06:43:52.024Z,1.10
2022-09-16T06:46:24.670Z,1.17
2022-09-16T06:48:53.940Z,1.50
2022-09-16T06:51:25.703Z,1.40
2022-09-16T06:53:53.398Z,1.40
2022-09-16T06:56:21.110Z,1.37
2022-09-16T06:58:49.477Z,2.30
2022-09-16T07:01:18.344Z,1.87
2022-09-16T07:03:47.551Z,2.20
2022-09-16T07:06:15.261Z,2.10
2022-09-16T07:08:42.360Z,2.10
2022-09-16T07:11:14.175Z,2.43
2022-09-16T07:13:41.210Z,2.90
2022-09-16T07:16:13.313Z,3.17
2022-09-16T07:18:40.929Z,2.50
2022-09-16T07:21:10.421Z,2.70
2022-09-16T07:23:37.952Z,2.50
2022-09-16T07:26:08.849Z,2.90
2022-09-16T07:28:36.429Z,3.00
2022-09-16T07:31:04.999Z,2.43
2022-09-16T07:33:33.334Z,3.70
2022-09-16T07:36:00.796Z,3.40
2022-09-16T07:38:29.078Z,4.20
2022-09-16T07:40:55.884Z,3.47
2022-09-16T07:43:22.429Z,2.53
2022-09-16T07:45:56.439Z,3.33
2022-09-16T07:48:23.029Z,3.13
2022-09-16T07:51:01.616Z,2.83
2022-09-16T07:53:29.738Z,2.80
2022-09-16T07:55:57.301Z,3.13
2022-09-16T07:58:23.820Z,2.73
2022-09-16T08:00:50.521Z,2.57
2022-09-16T08:03:17.832Z,2.40
2022-09-16T08:05:44.873Z,2.57
2022-09-16T08:08:11.412Z,2.67
2022-09-16T08:10:38.216Z,2.13
2022-09-16T08:13:06.059Z,2.30
2022-09-16T08:15:33.214Z,2.07
2022-09-16T08:17:59.875Z,2.63
2022-09-16T08:20:27.125Z,2.47
2022-09-16T08:22:57.420Z,2.13
2022-09-16T08:25:25.113Z,2.60
2022-09-16T08:27:54.158Z,2.73
2022-09-16T08:30:23.329Z,2.70
2022-09-16T08:32:57.081Z,3.37
2022-09-16T08:35:23.929Z,1.90
2022-09-16T08:37:50.509Z,2.20
2022-09-16T08:42:59.281Z,2.23
2022-09-16T08:45:56.793Z,2.10
2022-09-16T08:48:52.606Z,1.90
2022-09-16T08:51:20.228Z,2.57
2022-09-16T08:54:02.490Z,3.03
2022-09-16T08:56:31.806Z,2.50
2022-09-16T08:59:01.170Z,3.00
2022-09-16T09:01:50.602Z,2.33
2022-09-16T09:04:17.483Z,3.30
2022-09-16T09:06:44.034Z,2.97
2022-09-16T09:09:35.547Z,3.30
2022-09-16T09:12:08.991Z,2.77
2022-09-16T09:14:43.276Z,2.03
2022-09-16T09:17:26.948Z,2.30
2022-09-16T09:20:10.538Z,2.20
2022-09-16T09:23:01.931Z,3.10
2022-09-16T09:25:40.070Z,2.60
2022-09-16T09:28:17.312Z,2.20
2022-09-16T09:30:53.651Z,1.63
2022-09-16T09:33:46.890Z,2.23
2022-09-16T09:36:41.935Z,1.70
2022-09-16T09:39:11.445Z,1.47
2022-09-16T09:41:46.651Z,1.30
2022-09-16T09:44:40.814Z,1.53
2022-09-16T09:47:27.685Z,1.07
2022-09-16T09:49:57.752Z,1.60
2022-09-16T09:52:44.211Z,1.30
2022-09-16T09:55:19.329Z,1.40
2022-09-16T09:58:01.127Z,1.57
2022-09-16T10:00:28.097Z,1.30
2022-09-16T10:03:03.988Z,1.60
2022-09-16T10:05:31.201Z,1.20
2022-09-16T10:08:00.380Z,1.50
2022-09-16T10:10:31.386Z,1.40
2022-09-16T10:13:07.676Z,1.30
2022-09-16T10:15:35.216Z,1.17
2022-09-16T10:18:03.206Z,1.17
2022-09-16T10:20:38.158Z,1.43
2022-09-16T10:23:16.536Z,1.50
2022-09-16T10:25:43.784Z,1.10
2022-09-16T10:28:23.355Z,1.40
2022-09-16T10:30:52.699Z,1.00
2022-09-16T10:33:29.273Z,1.10
2022-09-16T10:36:10.275Z,1.20
2022-09-16T10:38:42.197Z,1.63
2022-09-16T10:41:16.465Z,1.30
2022-09-16T10:44:06.913Z,1.50
2022-09-16T10:46:33.960Z,1.20
2022-09-16T10:49:02.813Z,1.30
2022-09-16T10:51:31.287Z,1.40
2022-09-16T10:54:00.714Z,1.60
2022-09-16T10:56:29.557Z,1.27
2022-09-16T10:59:09.606Z,1.70
2022-09-16T11:02:04.545Z,1.50
2022-09-16T11:04:40.369Z,1.17
2022-09-16T11:07:31.760Z,1.50
2022-09-16T11:10:09.699Z,1.53
2022-09-16T11:12:55.270Z,1.00
2022-09-16T11:15:41.111Z,0.90
2022-09-16T11:18:19.953Z,0.87
2022-09-16T11:20:53.007Z,1.43
2022-09-16T11:23:47.442Z,0.97
2022-09-16T11:26:26.050Z,0.80
2022-09-16T11:29:03.617Z,0.90
2022-09-16T11:31:39.502Z,1.70
2022-09-16T11:34:25.211Z,1.07
2022-09-16T11:37:14.527Z,1.00
2022-09-16T11:39:59.382Z,1.10
2022-09-16T11:42:39.112Z,0.90
2022-09-16T11:45:35.327Z,1.00
2022-09-16T11:48:26.766Z,0.90
2022-09-16T11:51:05.563Z,0.90
2022-09-16T11:53:45.858Z,1.27
2022-09-16T11:56:15.300Z,1.40
2022-09-16T11:58:54.541Z,1.40
2022-09-16T12:01:42.949Z,1.50
2022-09-16T12:04:16.718Z,1.20
2022-09-16T12:06:55.346Z,1.27
2022-09-16T12:09:35.079Z,1.30
2022-09-16T12:12:14.917Z,1.73
2022-09-16T12:14:45.618Z,1.37
2022-09-16T12:17:22.446Z,1.60
2022-09-16T12:20:10.953Z,1.03
2022-09-16T12:22:45.766Z,1.40
2022-09-16T12:25:28.314Z,2.23
2022-09-16T12:28:03.646Z,1.57
2022-09-16T12:30:36.366Z,1.20
2022-09-16T12:33:16.937Z,1.37
2022-09-16T12:36:09.474Z,1.27
2022-09-16T12:38:36.108Z,1.03
2022-09-16T12:41:27.382Z,1.23
2022-09-16T12:44:33.855Z,0.93
2022-09-16T12:47:21.229Z,1.23
2022-09-16T12:49:56.792Z,1.00
2022-09-16T12:52:29.533Z,1.23
2022-09-16T12:55:26.803Z,0.80
2022-09-16T12:58:14.681Z,1.47
2022-09-16T13:00:53.486Z,1.50
2022-09-16T13:03:27.544Z,1.40
2022-09-16T13:05:56.968Z,1.53
2022-09-16T13:08:33.895Z,1.43
2022-09-16T13:11:41.197Z,1.10
2022-09-16T13:13:54.306Z,1.07
2022-09-16T13:16:30.627Z,1.53
2022-09-16T13:19:24.656Z,1.33
2022-09-16T13:21:56.096Z,1.17
2022-09-16T13:24:39.033Z,1.27
2022-09-16T13:27:36.169Z,1.00
2022-09-16T13:30:08.602Z,0.80
2022-09-16T13:32:43.498Z,1.00
2022-09-16T13:35:19.078Z,1.20
2022-09-16T13:37:50.129Z,0.80
2022-09-16T13:40:25.726Z,0.90
2022-09-16T13:43:09.321Z,1.00
2022-09-16T13:45:45.621Z,1.10
2022-09-16T13:48:24.634Z,1.00
2022-09-16T13:50:57.883Z,1.10
2022-09-16T13:53:29.504Z,0.97
2022-09-16T13:56:01.151Z,1.00
2022-09-16T13:58:36.400Z,1.20
2022-09-16T14:01:27.912Z,1.27
2022-09-16T14:04:13.169Z,1.20
2022-09-16T14:06:49.171Z,1.30
2022-09-16T14:09:45.503Z,1.53
2022-09-16T14:12:48.592Z,1.27
2022-09-16T14:15:16.243Z,1.03
2022-09-16T14:17:50.966Z,1.30
2022-09-16T14:20:21.756Z,2.47
2022-09-16T14:22:48.532Z,1.30
2022-09-16T14:25:34.755Z,1.57
2022-09-16T14:28:28.092Z,1.27
2022-09-16T14:30:56.018Z,1.20
2022-09-16T14:33:26.922Z,1.30
2022-09-16T14:35:55.610Z,1.00
2022-09-16T14:38:44.949Z,1.20
2022-09-16T14:41:28.862Z,1.30
2022-09-16T14:44:02.549Z,1.40
2022-09-16T14:46:29.146Z,1.57
2022-09-16T14:48:56.291Z,1.50
2022-09-16T14:51:25.196Z,1.27
2022-09-16T14:54:11.786Z,1.10
2022-09-16T14:56:40.039Z,1.60
2022-09-16T14:59:10.550Z,1.23
2022-09-16T15:01:37.211Z,1.00
2022-09-16T15:04:08.724Z,1.40
2022-09-16T15:06:43.548Z,1.77
2022-09-16T15:09:23.677Z,1.33
2022-09-16T15:11:57.988Z,1.67
2022-09-16T15:14:24.707Z,1.60
2022-09-16T15:16:56.065Z,1.50
2022-09-16T15:19:28.130Z,1.30
2022-09-16T15:21:54.882Z,1.47
2022-09-16T15:24:24.877Z,1.70
2022-09-16T15:26:54.089Z,1.53
2022-09-16T15:29:20.915Z,1.50
2022-09-16T15:31:47.855Z,1.30
2022-09-16T15:34:23.290Z,1.63
2022-09-16T15:36:54.753Z,1.60
2022-09-16T15:39:24.304Z,1.80
2022-09-16T15:42:04.918Z,1.93
2022-09-16T15:44:36.963Z,1.57
2022-09-16T15:47:04.388Z,2.07
2022-09-16T15:49:33.769Z,1.63
2022-09-16T15:52:08.685Z,1.93
2022-09-16T15:54:45.066Z,1.90
2022-09-16T15:57:23.062Z,1.70
2022-09-16T16:00:10.788Z,2.10
2022-09-16T16:02:40.257Z,2.60
2022-09-16T16:05:11.871Z,2.10
2022-09-16T16:07:50.453Z,2.50
2022-09-16T16:10:20.768Z,2.50
2022-09-16T16:12:51.922Z,2.60
2022-09-16T16:15:25.222Z,2.10
2022-09-16T16:17:53.565Z,2.40
2022-09-16T16:20:21.805Z,2.60
2022-09-16T16:22:49.059Z,3.00
2022-09-16T16:25:15.832Z,1.67
2022-09-16T16:27:45.771Z,1.65
2022-09-16T16:30:12.589Z,2.10
2022-09-16T16:32:41.984Z,1.60
2022-09-16T16:35:08.866Z,1.67
2022-09-16T16:37:50.679Z,2.30
2022-09-16T16:40:17.400Z,1.87
2022-09-16T16:42:44.322Z,2.33
2022-09-16T16:45:14.543Z,1.40
2022-09-16T16:47:42.024Z,1.60
2022-09-16T16:50:09.069Z,1.33
2022-09-16T16:52:35.648Z,2.17
2022-09-16T16:55:02.116Z,1.30
2022-09-16T16:57:28.646Z,1.50
2022-09-16T16:59:55.142Z,1.40
2022-09-16T17:02:21.782Z,1.50
2022-09-16T17:04:48.297Z,1.30
2022-09-16T17:07:25.609Z,1.20
2022-09-16T17:09:53.788Z,1.97
2022-09-16T17:12:20.632Z,1.70
2022-09-16T17:14:47.246Z,1.77
2022-09-16T17:17:13.743Z,1.83
2022-09-16T17:19:40.239Z,1.07
2022-09-16T17:22:06.831Z,1.23
2022-09-16T17:24:34.633Z,2.13
2022-09-16T17:27:01.502Z,1.53
2022-09-16T17:29:28.007Z,1.37
2022-09-16T17:31:56.889Z,1.27
2022-09-16T17:34:23.762Z,1.40
2022-09-16T17:36:50.240Z,1.43
2022-09-16T17:39:19.078Z,1.80
2022-09-16T17:41:48.563Z,1.23
2022-09-16T17:44:15.818Z,1.60
2022-09-16T17:46:43.088Z,1.30
2022-09-16T17:49:23.750Z,1.60
2022-09-16T17:51:51.439Z,1.80
2022-09-16T17:54:18.248Z,1.20
2022-09-16T17:56:45.301Z,0.97
2022-09-16T17:59:13.288Z,1.10
2022-09-16T18:01:40.184Z,1.50
2022-09-16T18:04:07.446Z,1.50
2022-09-16T18:06:45.466Z,1.80
2022-09-16T18:09:13.081Z,1.43
2022-09-16T18:11:39.967Z,1.60
2022-09-16T18:14:10.030Z,1.63
2022-09-16T18:16:36.614Z,1.93
2022-09-16T18:19:04.135Z,1.67
2022-09-16T18:21:31.421Z,1.70
2022-09-16T18:24:00.327Z,1.93
2022-09-16T18:26:27.352Z,1.77
2022-09-16T18:29:11.533Z,2.00
2022-09-16T18:31:46.849Z,1.57
2022-09-16T18:34:13.851Z,1.50
2022-09-16T18:36:40.784Z,1.50
2022-09-16T18:39:11.509Z,2.20
2022-09-16T18:41:40.464Z,1.77
2022-09-16T18:44:12.793Z,2.60
2022-09-16T18:46:39.582Z,2.00
2022-09-16T18:49:06.660Z,2.47
2022-09-16T18:51:38.450Z,1.87
2022-09-16T18:54:11.439Z,1.77
2022-09-16T18:56:39.029Z,1.80
2022-09-16T18:59:23.950Z,2.80
2022-09-16T19:01:56.874Z,1.60
2022-09-16T19:04:27.173Z,2.17
2022-09-16T19:06:59.199Z,1.97
2022-09-16T19:09:25.835Z,1.80
2022-09-16T19:11:53.957Z,2.03
2022-09-16T19:14:24.151Z,2.07
2022-09-16T19:16:50.806Z,1.90
2022-09-16T19:19:17.308Z,1.50
2022-09-16T19:21:44.315Z,1.97
2022-09-16T19:24:14.071Z,2.23
2022-09-16T19:26:42.129Z,1.70
2022-09-16T19:29:08.989Z,2.70
2022-09-16T19:31:38.054Z,2.10
2022-09-16T19:34:05.406Z,2.47
2022-09-16T19:36:32.710Z,2.37
2022-09-16T19:38:59.995Z,2.27
2022-09-16T19:41:29.802Z,2.10
2022-09-16T19:43:58.279Z,2.10
2022-09-16T19:46:25.920Z,2.03
2022-09-16T19:48:52.732Z,2.17
2022-09-16T19:51:22.614Z,2.23
2022-09-16T19:53:49.640Z,2.00
2022-09-16T19:56:21.221Z,2.60
2022-09-16T19:58:48.492Z,1.40
2022-09-16T20:01:18.064Z,1.90
2022-09-16T20:03:45.071Z,1.57
2022-09-16T20:06:14.498Z,1.50
2022-09-16T20:08:42.427Z,2.17
2022-09-16T20:11:14.406Z,2.00
2022-09-16T20:13:41.006Z,1.37
2022-09-16T20:16:09.379Z,1.50
2022-09-16T20:18:36.544Z,1.47
2022-09-16T20:21:08.268Z,1.73
2022-09-16T20:23:35.162Z,2.33
2022-09-16T20:26:04.023Z,2.00
2022-09-16T20:28:34.725Z,1.87
2022-09-16T20:31:01.863Z,1.90
2022-09-16T20:33:33.102Z,1.63
2022-09-16T20:36:08.256Z,1.90
2022-09-16T20:38:34.953Z,2.10
2022-09-16T20:41:09.229Z,2.50
2022-09-16T20:43:36.342Z,1.97
2022-09-16T20:46:05.021Z,1.67
2022-09-16T20:48:31.775Z,2.50
2022-09-16T20:51:06.666Z,2.10
2022-09-16T20:53:36.146Z,1.80
2022-09-16T20:56:04.635Z,2.57
2022-09-16T20:58:31.349Z,2.50
2022-09-16T21:01:06.645Z,1.83
2022-09-16T21:03:33.855Z,2.40
2022-09-16T21:06:07.777Z,2.70
2022-09-16T21:08:36.883Z,1.90
2022-09-16T21:11:07.103Z,2.43
2022-09-16T21:13:34.211Z,2.07
2022-09-16T21:16:00.856Z,1.93
2022-09-16T21:18:27.958Z,1.70
2022-09-16T21:21:04.627Z,1.90
2022-09-16T21:23:32.426Z,2.30
2022-09-16T21:26:16.169Z,2.23
2022-09-16T21:28:43.454Z,2.00
2022-09-16T21:31:13.332Z,2.20
2022-09-16T21:33:41.714Z,2.57
2022-09-16T21:36:10.403Z,1.60
2022-09-16T21:38:38.600Z,2.67
2022-09-16T21:41:13.665Z,2.17
2022-09-16T21:43:43.012Z,3.13
2022-09-16T21:46:11.748Z,1.73
2022-09-16T21:48:38.531Z,2.13
2022-09-16T21:51:12.974Z,2.07
2022-09-16T21:53:43.203Z,2.37
2022-09-16T21:56:15.419Z,2.70
2022-09-16T21:58:42.673Z,2.00
2022-09-16T22:01:11.368Z,1.90
2022-09-16T22:03:39.749Z,2.27
2022-09-16T22:06:07.673Z,1.90
2022-09-16T22:08:34.709Z,2.03
2022-09-16T22:11:07.264Z,1.77
2022-09-16T22:13:34.426Z,2.07
2022-09-16T22:16:01.913Z,2.57
2022-09-16T22:18:30.174Z,2.40
2022-09-16T22:21:02.336Z,2.83
2022-09-16T22:23:28.798Z,2.50
2022-09-16T22:25:55.270Z,2.17
2022-09-16T22:28:21.703Z,2.30
2022-09-16T22:30:48.289Z,2.90
2022-09-16T22:33:14.776Z,2.20
2022-09-16T22:35:41.300Z,2.10
2022-09-16T22:38:07.822Z,2.10
2022-09-16T22:40:34.494Z,2.13
2022-09-16T22:43:01.027Z,2.50
2022-09-16T22:45:27.481Z,2.33
2022-09-16T22:47:54.002Z,2.40
2022-09-16T22:50:20.483Z,2.33
2022-09-16T22:52:47.068Z,2.60
2022-09-16T22:55:13.614Z,3.20
2022-09-16T22:57:40.043Z,3.20
2022-09-16T23:00:07.055Z,2.57
2022-09-16T23:02:33.518Z,3.27
2022-09-16T23:05:00.180Z,3.20
2022-09-16T23:07:26.819Z,3.23
2022-09-16T23:09:53.354Z,2.80
2022-09-16T23:12:19.900Z,3.00
2022-09-16T23:14:46.395Z,2.57
2022-09-16T23:17:12.930Z,2.97
2022-09-16T23:19:39.393Z,3.10
2022-09-16T23:22:06.054Z,3.43
2022-09-16T23:24:32.545Z,3.23
2022-09-16T23:26:59.376Z,3.40
2022-09-16T23:29:25.831Z,3.80
2022-09-16T23:31:52.841Z,2.93
2022-09-16T23:34:21.397Z,3.30
2022-09-16T23:36:48.804Z,3.23
2022-09-16T23:39:16.224Z,3.30
2022-09-16T23:41:43.499Z,3.27
2022-09-16T23:44:13.036Z,3.10
2022-09-16T23:46:39.597Z,2.87
2022-09-16T23:49:06.194Z,2.37
2022-09-16T23:51:32.768Z,3.63
2022-09-16T23:53:59.641Z,2.73
2022-09-16T23:56:26.748Z,3.00
2022-09-16T23:58:53.956Z,2.90
